Weather at Kimba Airport

Public forecast

Using degrees Celsius for public forecast. Weather courtesy of forecast.io.

Closest aviation weather report (METAR) to Kimba Airport

Closest report is Whyalla Airport, 52.8 nm (97.7 km) E. Retrieved 2021/06/20 08:00 UTC (50 minutes ago):

YWHA 200800Z AUTO 13004KT //// // NCD 12/09 Q1024

Closest aviation forecast (TAF) to Kimba Airport

Forecast is more than 12 hours old.

Closest forecast is Whyalla Airport, 52.8 nm (97.7 km) E. Retrieved 2018/11/15 18:03 UTC (3 years ago):

TAF YWHA 151701Z 1518/1608 VRB05KT CAVOK FM152300 18012KT CAVOK FM160200 18018KT CAVOK